sensor_id;sensor_type;location;lat;lon;timestamp;temperature;humidity
32428;DHT22;18882;50.952;4.366;2023-06-10T00:01:42;21.60;99.90
32428;DHT22;18882;50.952;4.366;2023-06-10T00:04:08;21.50;99.90
32428;DHT22;18882;50.952;4.366;2023-06-10T00:06:34;21.50;99.90
32428;DHT22;18882;50.952;4.366;2023-06-10T00:09:04;21.50;99.90
32428;DHT22;18882;50.952;4.366;2023-06-10T00:11:33;21.40;99.90
32428;DHT22;18882;50.952;4.366;2023-06-10T00:14:00;21.40;99.90
32428;DHT22;18882;50.952;4.366;2023-06-10T00:16:26;21.40;99.90
32428;DHT22;18882;50.952;4.366;2023-06-10T00:18:51;21.30;99.90
32428;DHT22;18882;50.952;4.366;2023-06-10T00:21:17;21.20;99.90
32428;DHT22;18882;50.952;4.366;2023-06-10T00:23:44;21.20;99.90
32428;DHT22;18882;50.952;4.366;2023-06-10T00:26:10;21.20;99.90
32428;DHT22;18882;50.952;4.366;2023-06-10T00:28:35;21.20;99.90
32428;DHT22;18882;50.952;4.366;2023-06-10T00:31:01;21.20;99.90
32428;DHT22;18882;50.952;4.366;2023-06-10T00:33:27;21.10;99.90
32428;DHT22;18882;50.952;4.366;2023-06-10T00:35:53;21.00;99.90
32428;DHT22;18882;50.952;4.366;2023-06-10T00:38:19;21.00;99.90
32428;DHT22;18882;50.952;4.366;2023-06-10T00:40:45;21.00;99.90
32428;DHT22;18882;50.952;4.366;2023-06-10T00:43:10;21.10;99.90
32428;DHT22;18882;50.952;4.366;2023-06-10T00:45:36;21.00;99.90
32428;DHT22;18882;50.952;4.366;2023-06-10T00:48:02;21.00;99.90
32428;DHT22;18882;50.952;4.366;2023-06-10T00:50:29;21.00;99.90
32428;DHT22;18882;50.952;4.366;2023-06-10T00:52:56;20.90;99.90
32428;DHT22;18882;50.952;4.366;2023-06-10T00:55:23;20.90;99.90
32428;DHT22;18882;50.952;4.366;2023-06-10T00:57:50;20.90;99.90
32428;DHT22;18882;50.952;4.366;2023-06-10T01:00:17;20.90;99.90
32428;DHT22;18882;50.952;4.366;2023-06-10T01:02:43;20.90;99.90
32428;DHT22;18882;50.952;4.366;2023-06-10T01:05:09;20.90;99.90
32428;DHT22;18882;50.952;4.366;2023-06-10T01:07:43;20.80;99.90
32428;DHT22;18882;50.952;4.366;2023-06-10T01:12:52;20.60;99.90
32428;DHT22;18882;50.952;4.366;2023-06-10T01:15:22;20.60;99.90
32428;DHT22;18882;50.952;4.366;2023-06-10T01:18:04;20.60;99.90
32428;DHT22;18882;50.952;4.366;2023-06-10T01:20:35;20.60;99.90
32428;DHT22;18882;50.952;4.366;2023-06-10T01:23:02;20.60;99.90
32428;DHT22;18882;50.952;4.366;2023-06-10T01:25:29;20.60;99.90
32428;DHT22;18882;50.952;4.366;2023-06-10T01:33:31;20.50;99.90
32428;DHT22;18882;50.952;4.366;2023-06-10T01:35:59;20.50;99.90
32428;DHT22;18882;50.952;4.366;2023-06-10T01:38:27;20.50;99.90
32428;DHT22;18882;50.952;4.366;2023-06-10T01:40:56;20.50;99.90
32428;DHT22;18882;50.952;4.366;2023-06-10T01:43:23;20.40;99.90
32428;DHT22;18882;50.952;4.366;2023-06-10T01:45:49;20.30;99.90
32428;DHT22;18882;50.952;4.366;2023-06-10T01:48:14;20.30;99.90
32428;DHT22;18882;50.952;4.366;2023-06-10T01:50:40;20.30;99.90
32428;DHT22;18882;50.952;4.366;2023-06-10T01:53:06;20.20;99.90
32428;DHT22;18882;50.952;4.366;2023-06-10T01:55:31;20.30;99.90
32428;DHT22;18882;50.952;4.366;2023-06-10T01:57:57;20.20;99.90
32428;DHT22;18882;50.952;4.366;2023-06-10T02:00:23;20.20;99.90
32428;DHT22;18882;50.952;4.366;2023-06-10T02:02:48;20.20;99.90
32428;DHT22;18882;50.952;4.366;2023-06-10T02:05:14;20.10;99.90
32428;DHT22;18882;50.952;4.366;2023-06-10T02:07:40;20.10;99.90
32428;DHT22;18882;50.952;4.366;2023-06-10T02:10:06;20.10;99.90
32428;DHT22;18882;50.952;4.366;2023-06-10T02:12:32;20.10;99.90
32428;DHT22;18882;50.952;4.366;2023-06-10T02:14:58;20.10;99.90
32428;DHT22;18882;50.952;4.366;2023-06-10T02:17:23;20.10;99.90
32428;DHT22;18882;50.952;4.366;2023-06-10T02:19:49;20.10;99.90
32428;DHT22;18882;50.952;4.366;2023-06-10T02:22:22;20.10;99.90
32428;DHT22;18882;50.952;4.366;2023-06-10T02:24:48;20.10;99.90
32428;DHT22;18882;50.952;4.366;2023-06-10T02:27:18;20.00;99.90
32428;DHT22;18882;50.952;4.366;2023-06-10T02:29:44;20.00;99.90
32428;DHT22;18882;50.952;4.366;2023-06-10T02:32:10;20.00;99.90
32428;DHT22;18882;50.952;4.366;2023-06-10T02:34:36;19.90;99.90
32428;DHT22;18882;50.952;4.366;2023-06-10T02:37:02;20.00;99.90
32428;DHT22;18882;50.952;4.366;2023-06-10T02:39:28;19.90;99.90
32428;DHT22;18882;50.952;4.366;2023-06-10T02:41:54;19.90;99.90
32428;DHT22;18882;50.952;4.366;2023-06-10T02:44:20;19.90;99.90
32428;DHT22;18882;50.952;4.366;2023-06-10T02:46:46;19.90;99.90
32428;DHT22;18882;50.952;4.366;2023-06-10T02:49:12;19.90;99.90
32428;DHT22;18882;50.952;4.366;2023-06-10T02:51:38;19.80;99.90
32428;DHT22;18882;50.952;4.366;2023-06-10T02:54:04;19.70;99.90
32428;DHT22;18882;50.952;4.366;2023-06-10T02:56:30;19.60;99.90
32428;DHT22;18882;50.952;4.366;2023-06-10T02:58:57;19.70;99.90
32428;DHT22;18882;50.952;4.366;2023-06-10T03:01:23;19.70;99.90
32428;DHT22;18882;50.952;4.366;2023-06-10T03:03:49;19.60;99.90
32428;DHT22;18882;50.952;4.366;2023-06-10T03:06:16;19.60;99.90
32428;DHT22;18882;50.952;4.366;2023-06-10T03:08:42;19.50;99.90
32428;DHT22;18882;50.952;4.366;2023-06-10T03:11:08;19.50;99.90
32428;DHT22;18882;50.952;4.366;2023-06-10T03:13:33;19.50;99.90
32428;DHT22;18882;50.952;4.366;2023-06-10T03:15:59;19.50;99.90
32428;DHT22;18882;50.952;4.366;2023-06-10T03:18:28;19.50;99.90
32428;DHT22;18882;50.952;4.366;2023-06-10T03:20:57;19.50;99.90
32428;DHT22;18882;50.952;4.366;2023-06-10T03:23:23;19.50;99.90
32428;DHT22;18882;50.952;4.366;2023-06-10T03:25:49;19.40;99.90
32428;DHT22;18882;50.952;4.366;2023-06-10T03:28:15;19.40;99.90
32428;DHT22;18882;50.952;4.366;2023-06-10T03:30:40;19.30;99.90
32428;DHT22;18882;50.952;4.366;2023-06-10T03:33:06;19.40;99.90
32428;DHT22;18882;50.952;4.366;2023-06-10T03:35:32;19.40;99.90
32428;DHT22;18882;50.952;4.366;2023-06-10T03:37:58;19.30;99.90
32428;DHT22;18882;50.952;4.366;2023-06-10T03:40:24;19.30;99.90
32428;DHT22;18882;50.952;4.366;2023-06-10T03:42:50;19.30;99.90
32428;DHT22;18882;50.952;4.366;2023-06-10T03:45:15;19.30;99.90
32428;DHT22;18882;50.952;4.366;2023-06-10T03:47:41;19.30;99.90
32428;DHT22;18882;50.952;4.366;2023-06-10T03:50:09;19.30;99.90
32428;DHT22;18882;50.952;4.366;2023-06-10T03:52:38;19.30;99.90
32428;DHT22;18882;50.952;4.366;2023-06-10T03:55:05;19.20;99.90
32428;DHT22;18882;50.952;4.366;2023-06-10T03:57:31;19.20;99.90
32428;DHT22;18882;50.952;4.366;2023-06-10T03:59:57;19.10;99.90
32428;DHT22;18882;50.952;4.366;2023-06-10T04:02:23;19.10;99.90
32428;DHT22;18882;50.952;4.366;2023-06-10T04:04:49;19.20;99.90
32428;DHT22;18882;50.952;4.366;2023-06-10T04:07:14;19.20;99.90
32428;DHT22;18882;50.952;4.366;2023-06-10T04:09:40;19.10;99.90
32428;DHT22;18882;50.952;4.366;2023-06-10T04:12:06;19.10;99.90
32428;DHT22;18882;50.952;4.366;2023-06-10T04:14:34;19.10;99.90
32428;DHT22;18882;50.952;4.366;2023-06-10T04:17:04;19.10;99.90
32428;DHT22;18882;50.952;4.366;2023-06-10T04:19:32;19.20;99.90
32428;DHT22;18882;50.952;4.366;2023-06-10T04:22:00;19.20;99.90
32428;DHT22;18882;50.952;4.366;2023-06-10T04:24:26;19.20;99.90
32428;DHT22;18882;50.952;4.366;2023-06-10T04:26:51;19.20;99.90
32428;DHT22;18882;50.952;4.366;2023-06-10T04:29:17;19.20;99.90
32428;DHT22;18882;50.952;4.366;2023-06-10T04:31:43;19.20;99.90
32428;DHT22;18882;50.952;4.366;2023-06-10T04:34:08;19.20;99.90
32428;DHT22;18882;50.952;4.366;2023-06-10T04:36:34;19.20;99.90
32428;DHT22;18882;50.952;4.366;2023-06-10T04:38:59;19.20;99.90
32428;DHT22;18882;50.952;4.366;2023-06-10T04:41:25;19.20;99.90
32428;DHT22;18882;50.952;4.366;2023-06-10T04:43:52;19.20;99.90
32428;DHT22;18882;50.952;4.366;2023-06-10T04:46:19;19.30;99.90
32428;DHT22;18882;50.952;4.366;2023-06-10T04:48:44;19.40;99.90
32428;DHT22;18882;50.952;4.366;2023-06-10T04:51:12;19.40;99.90
32428;DHT22;18882;50.952;4.366;2023-06-10T04:53:39;19.50;99.90
32428;DHT22;18882;50.952;4.366;2023-06-10T04:56:04;19.50;99.90
32428;DHT22;18882;50.952;4.366;2023-06-10T04:58:30;19.50;99.90
32428;DHT22;18882;50.952;4.366;2023-06-10T05:00:56;19.50;99.90
32428;DHT22;18882;50.952;4.366;2023-06-10T05:03:21;19.60;99.90
32428;DHT22;18882;50.952;4.366;2023-06-10T05:05:47;19.60;99.90
32428;DHT22;18882;50.952;4.366;2023-06-10T05:08:12;19.70;99.90
32428;DHT22;18882;50.952;4.366;2023-06-10T05:10:38;19.80;99.90
32428;DHT22;18882;50.952;4.366;2023-06-10T05:13:04;19.90;99.90
32428;DHT22;18882;50.952;4.366;2023-06-10T05:15:30;19.80;99.90
32428;DHT22;18882;50.952;4.366;2023-06-10T05:17:59;19.90;99.90
32428;DHT22;18882;50.952;4.366;2023-06-10T05:20:25;19.90;99.90
32428;DHT22;18882;50.952;4.366;2023-06-10T05:22:51;19.80;99.90
32428;DHT22;18882;50.952;4.366;2023-06-10T05:25:17;19.80;99.90
32428;DHT22;18882;50.952;4.366;2023-06-10T05:27:43;19.80;99.90
32428;DHT22;18882;50.952;4.366;2023-06-10T05:30:10;19.70;99.90
32428;DHT22;18882;50.952;4.366;2023-06-10T05:32:36;19.80;99.90
32428;DHT22;18882;50.952;4.366;2023-06-10T05:35:02;19.90;99.90
32428;DHT22;18882;50.952;4.366;2023-06-10T05:37:29;20.00;99.90
32428;DHT22;18882;50.952;4.366;2023-06-10T05:39:55;20.00;99.90
32428;DHT22;18882;50.952;4.366;2023-06-10T05:42:20;20.20;99.90
32428;DHT22;18882;50.952;4.366;2023-06-10T05:44:46;20.40;99.90
32428;DHT22;18882;50.952;4.366;2023-06-10T05:47:12;20.50;99.90
32428;DHT22;18882;50.952;4.366;2023-06-10T05:49:37;20.60;99.90
32428;DHT22;18882;50.952;4.366;2023-06-10T05:52:03;20.60;99.90
32428;DHT22;18882;50.952;4.366;2023-06-10T05:54:29;20.70;99.90
32428;DHT22;18882;50.952;4.366;2023-06-10T05:56:54;20.70;99.90
32428;DHT22;18882;50.952;4.366;2023-06-10T05:59:20;20.80;99.90
32428;DHT22;18882;50.952;4.366;2023-06-10T06:01:48;20.90;99.90
32428;DHT22;18882;50.952;4.366;2023-06-10T06:04:29;20.80;99.90
32428;DHT22;18882;50.952;4.366;2023-06-10T06:06:55;20.60;99.90
32428;DHT22;18882;50.952;4.366;2023-06-10T06:09:20;20.70;99.90
32428;DHT22;18882;50.952;4.366;2023-06-10T06:11:46;20.70;99.90
32428;DHT22;18882;50.952;4.366;2023-06-10T06:14:12;20.60;99.90
32428;DHT22;18882;50.952;4.366;2023-06-10T06:16:38;20.50;99.90
32428;DHT22;18882;50.952;4.366;2023-06-10T06:19:04;20.70;99.90
32428;DHT22;18882;50.952;4.366;2023-06-10T06:21:29;20.80;99.90
32428;DHT22;18882;50.952;4.366;2023-06-10T06:23:55;21.10;99.90
32428;DHT22;18882;50.952;4.366;2023-06-10T06:26:21;21.20;99.90
32428;DHT22;18882;50.952;4.366;2023-06-10T06:28:46;21.40;99.90
32428;DHT22;18882;50.952;4.366;2023-06-10T06:31:12;21.60;99.90
32428;DHT22;18882;50.952;4.366;2023-06-10T06:33:38;21.40;99.90
32428;DHT22;18882;50.952;4.366;2023-06-10T06:36:04;21.40;99.90
32428;DHT22;18882;50.952;4.366;2023-06-10T06:38:29;21.50;99.90
32428;DHT22;18882;50.952;4.366;2023-06-10T06:40:55;21.70;99.90
32428;DHT22;18882;50.952;4.366;2023-06-10T06:43:21;21.70;99.90
32428;DHT22;18882;50.952;4.366;2023-06-10T06:45:46;21.80;99.90
32428;DHT22;18882;50.952;4.366;2023-06-10T06:48:12;22.00;99.90
32428;DHT22;18882;50.952;4.366;2023-06-10T06:50:38;21.90;99.90
32428;DHT22;18882;50.952;4.366;2023-06-10T06:53:04;21.90;99.90
32428;DHT22;18882;50.952;4.366;2023-06-10T06:55:29;21.90;99.90
32428;DHT22;18882;50.952;4.366;2023-06-10T06:57:55;21.80;99.90
32428;DHT22;18882;50.952;4.366;2023-06-10T07:00:21;22.00;99.90
32428;DHT22;18882;50.952;4.366;2023-06-10T07:02:48;22.10;99.90
32428;DHT22;18882;50.952;4.366;2023-06-10T07:05:14;22.20;99.90
32428;DHT22;18882;50.952;4.366;2023-06-10T07:07:40;22.30;99.90
32428;DHT22;18882;50.952;4.366;2023-06-10T07:10:06;22.30;99.90
32428;DHT22;18882;50.952;4.366;2023-06-10T07:12:32;22.60;99.90
32428;DHT22;18882;50.952;4.366;2023-06-10T07:14:57;22.80;99.90
32428;DHT22;18882;50.952;4.366;2023-06-10T07:17:23;22.90;99.90
32428;DHT22;18882;50.952;4.366;2023-06-10T07:19:49;22.90;99.90
32428;DHT22;18882;50.952;4.366;2023-06-10T07:22:14;22.90;99.90
32428;DHT22;18882;50.952;4.366;2023-06-10T07:24:40;22.90;99.90
32428;DHT22;18882;50.952;4.366;2023-06-10T07:27:06;22.80;99.90
32428;DHT22;18882;50.952;4.366;2023-06-10T07:29:32;23.00;99.90
32428;DHT22;18882;50.952;4.366;2023-06-10T07:31:58;23.30;99.90
32428;DHT22;18882;50.952;4.366;2023-06-10T07:34:24;23.40;99.90
32428;DHT22;18882;50.952;4.366;2023-06-10T07:36:49;23.50;99.90
32428;DHT22;18882;50.952;4.366;2023-06-10T07:39:15;23.70;99.90
32428;DHT22;18882;50.952;4.366;2023-06-10T07:41:41;23.70;99.90
32428;DHT22;18882;50.952;4.366;2023-06-10T07:44:06;24.00;99.90
32428;DHT22;18882;50.952;4.366;2023-06-10T07:46:32;24.20;99.90
32428;DHT22;18882;50.952;4.366;2023-06-10T07:48:57;24.10;99.90
32428;DHT22;18882;50.952;4.366;2023-06-10T07:51:23;24.20;99.90
32428;DHT22;18882;50.952;4.366;2023-06-10T07:53:49;24.30;99.90
32428;DHT22;18882;50.952;4.366;2023-06-10T07:56:15;24.40;99.90
32428;DHT22;18882;50.952;4.366;2023-06-10T07:58:40;24.50;99.90
32428;DHT22;18882;50.952;4.366;2023-06-10T08:01:06;24.50;99.90
32428;DHT22;18882;50.952;4.366;2023-06-10T08:03:32;24.80;99.90
32428;DHT22;18882;50.952;4.366;2023-06-10T08:05:58;24.90;99.90
32428;DHT22;18882;50.952;4.366;2023-06-10T08:08:24;25.00;99.90
32428;DHT22;18882;50.952;4.366;2023-06-10T08:10:49;25.10;99.90
32428;DHT22;18882;50.952;4.366;2023-06-10T08:13:15;25.10;99.90
32428;DHT22;18882;50.952;4.366;2023-06-10T08:15:41;24.90;99.90
32428;DHT22;18882;50.952;4.366;2023-06-10T08:18:07;25.00;99.90
32428;DHT22;18882;50.952;4.366;2023-06-10T08:20:32;25.00;99.90
32428;DHT22;18882;50.952;4.366;2023-06-10T08:22:58;25.30;99.90
32428;DHT22;18882;50.952;4.366;2023-06-10T08:25:23;25.40;99.90
32428;DHT22;18882;50.952;4.366;2023-06-10T08:27:49;25.40;99.90
32428;DHT22;18882;50.952;4.366;2023-06-10T08:30:16;25.40;99.90
32428;DHT22;18882;50.952;4.366;2023-06-10T08:32:42;25.60;99.90
32428;DHT22;18882;50.952;4.366;2023-06-10T08:35:07;25.70;99.90
32428;DHT22;18882;50.952;4.366;2023-06-10T08:37:33;25.40;99.90
32428;DHT22;18882;50.952;4.366;2023-06-10T08:39:59;25.30;99.90
32428;DHT22;18882;50.952;4.366;2023-06-10T08:42:32;25.20;99.90
32428;DHT22;18882;50.952;4.366;2023-06-10T08:45:01;25.30;99.90
32428;DHT22;18882;50.952;4.366;2023-06-10T08:47:29;25.40;99.90
32428;DHT22;18882;50.952;4.366;2023-06-10T08:49:57;25.60;99.90
32428;DHT22;18882;50.952;4.366;2023-06-10T08:52:31;25.80;99.90
32428;DHT22;18882;50.952;4.366;2023-06-10T08:55:10;25.90;99.90
32428;DHT22;18882;50.952;4.366;2023-06-10T08:57:36;25.90;99.90
32428;DHT22;18882;50.952;4.366;2023-06-10T09:00:03;26.10;99.90
32428;DHT22;18882;50.952;4.366;2023-06-10T09:02:31;26.20;99.90
32428;DHT22;18882;50.952;4.366;2023-06-10T09:05:00;26.40;99.90
32428;DHT22;18882;50.952;4.366;2023-06-10T09:07:26;26.60;99.90
32428;DHT22;18882;50.952;4.366;2023-06-10T09:09:53;26.70;99.90
32428;DHT22;18882;50.952;4.366;2023-06-10T09:12:20;26.60;99.90
32428;DHT22;18882;50.952;4.366;2023-06-10T09:14:45;26.80;99.90
32428;DHT22;18882;50.952;4.366;2023-06-10T09:17:11;26.90;99.90
32428;DHT22;18882;50.952;4.366;2023-06-10T09:19:38;27.10;99.90
32428;DHT22;18882;50.952;4.366;2023-06-10T09:22:05;27.40;99.90
32428;DHT22;18882;50.952;4.366;2023-06-10T09:24:31;27.30;99.90
32428;DHT22;18882;50.952;4.366;2023-06-10T09:27:04;27.40;99.90
32428;DHT22;18882;50.952;4.366;2023-06-10T09:29:32;27.60;99.90
32428;DHT22;18882;50.952;4.366;2023-06-10T09:31:57;27.70;99.90
32428;DHT22;18882;50.952;4.366;2023-06-10T09:34:25;28.00;99.90
32428;DHT22;18882;50.952;4.366;2023-06-10T09:36:54;27.90;99.90
32428;DHT22;18882;50.952;4.366;2023-06-10T09:39:21;28.00;99.90
32428;DHT22;18882;50.952;4.366;2023-06-10T09:41:47;28.10;99.90
32428;DHT22;18882;50.952;4.366;2023-06-10T09:44:20;28.50;99.90
32428;DHT22;18882;50.952;4.366;2023-06-10T09:46:47;29.10;99.90
32428;DHT22;18882;50.952;4.366;2023-06-10T09:49:13;29.70;99.90
32428;DHT22;18882;50.952;4.366;2023-06-10T09:51:59;29.80;99.90
32428;DHT22;18882;50.952;4.366;2023-06-10T09:54:31;30.20;99.90
32428;DHT22;18882;50.952;4.366;2023-06-10T09:56:57;29.90;99.90
32428;DHT22;18882;50.952;4.366;2023-06-10T09:59:29;29.70;99.90
32428;DHT22;18882;50.952;4.366;2023-06-10T10:01:55;29.60;99.90
32428;DHT22;18882;50.952;4.366;2023-06-10T10:04:25;30.20;99.90
32428;DHT22;18882;50.952;4.366;2023-06-10T10:06:51;31.30;99.90
32428;DHT22;18882;50.952;4.366;2023-06-10T10:09:16;32.50;99.90
32428;DHT22;18882;50.952;4.366;2023-06-10T10:11:43;31.60;99.90
32428;DHT22;18882;50.952;4.366;2023-06-10T10:14:10;31.40;99.90
32428;DHT22;18882;50.952;4.366;2023-06-10T10:16:37;31.30;99.90
32428;DHT22;18882;50.952;4.366;2023-06-10T10:19:25;31.30;99.90
32428;DHT22;18882;50.952;4.366;2023-06-10T10:21:54;32.00;99.90
32428;DHT22;18882;50.952;4.366;2023-06-10T10:24:26;31.80;99.90
32428;DHT22;18882;50.952;4.366;2023-06-10T10:26:54;31.60;99.90
32428;DHT22;18882;50.952;4.366;2023-06-10T10:29:33;32.20;99.90
32428;DHT22;18882;50.952;4.366;2023-06-10T10:32:01;32.30;99.90
32428;DHT22;18882;50.952;4.366;2023-06-10T10:34:39;33.50;99.90
32428;DHT22;18882;50.952;4.366;2023-06-10T10:37:08;34.10;97.40
32428;DHT22;18882;50.952;4.366;2023-06-10T10:39:34;34.00;98.70
32428;DHT22;18882;50.952;4.366;2023-06-10T10:42:02;34.30;97.80
32428;DHT22;18882;50.952;4.366;2023-06-10T10:44:29;33.60;96.30
32428;DHT22;18882;50.952;4.366;2023-06-10T10:46:56;33.30;97.70
32428;DHT22;18882;50.952;4.366;2023-06-10T10:49:22;33.40;96.30
32428;DHT22;18882;50.952;4.366;2023-06-10T10:52:01;32.60;95.70
32428;DHT22;18882;50.952;4.366;2023-06-10T10:54:31;31.90;96.40
32428;DHT22;18882;50.952;4.366;2023-06-10T10:57:13;31.10;96.70
32428;DHT22;18882;50.952;4.366;2023-06-10T11:05:02;30.50;97.90
32428;DHT22;18882;50.952;4.366;2023-06-10T11:07:31;30.30;98.00
32428;DHT22;18882;50.952;4.366;2023-06-10T11:10:09;30.00;98.40
32428;DHT22;18882;50.952;4.366;2023-06-10T11:12:57;30.10;97.60
32428;DHT22;18882;50.952;4.366;2023-06-10T11:15:25;30.20;99.10
32428;DHT22;18882;50.952;4.366;2023-06-10T11:20:55;30.20;98.00
32428;DHT22;18882;50.952;4.366;2023-06-10T11:26:29;30.30;97.20
32428;DHT22;18882;50.952;4.366;2023-06-10T11:33:55;30.30;96.60
32428;DHT22;18882;50.952;4.366;2023-06-10T11:36:22;30.30;97.70
32428;DHT22;18882;50.952;4.366;2023-06-10T11:38:48;30.60;98.30
32428;DHT22;18882;50.952;4.366;2023-06-10T11:41:26;30.60;98.10
32428;DHT22;18882;50.952;4.366;2023-06-10T11:43:53;30.50;97.80
32428;DHT22;18882;50.952;4.366;2023-06-10T11:46:22;30.60;96.50
32428;DHT22;18882;50.952;4.366;2023-06-10T11:48:52;30.60;96.40
32428;DHT22;18882;50.952;4.366;2023-06-10T11:51:19;30.80;96.40
32428;DHT22;18882;50.952;4.366;2023-06-10T11:53:46;31.00;95.60
32428;DHT22;18882;50.952;4.366;2023-06-10T11:56:12;31.00;96.00
32428;DHT22;18882;50.952;4.366;2023-06-10T11:59:06;31.10;96.50
32428;DHT22;18882;50.952;4.366;2023-06-10T12:01:37;31.10;97.00
32428;DHT22;18882;50.952;4.366;2023-06-10T12:04:07;30.90;96.30
32428;DHT22;18882;50.952;4.366;2023-06-10T12:06:46;31.10;97.20
32428;DHT22;18882;50.952;4.366;2023-06-10T12:09:25;31.10;95.20
32428;DHT22;18882;50.952;4.366;2023-06-10T12:12:02;31.20;95.70
32428;DHT22;18882;50.952;4.366;2023-06-10T12:14:57;31.10;95.70
32428;DHT22;18882;50.952;4.366;2023-06-10T12:17:43;31.10;94.90
32428;DHT22;18882;50.952;4.366;2023-06-10T12:20:31;31.10;96.00
32428;DHT22;18882;50.952;4.366;2023-06-10T12:23:00;31.20;95.50
32428;DHT22;18882;50.952;4.366;2023-06-10T12:25:33;31.20;95.80
32428;DHT22;18882;50.952;4.366;2023-06-10T12:27:59;31.00;94.10
32428;DHT22;18882;50.952;4.366;2023-06-10T12:30:32;30.60;94.40
32428;DHT22;18882;50.952;4.366;2023-06-10T12:32:58;30.30;95.00
32428;DHT22;18882;50.952;4.366;2023-06-10T12:35:26;30.20;95.70
32428;DHT22;18882;50.952;4.366;2023-06-10T12:38:04;30.20;96.00
32428;DHT22;18882;50.952;4.366;2023-06-10T12:40:40;30.30;95.50
32428;DHT22;18882;50.952;4.366;2023-06-10T12:43:11;30.50;95.70
32428;DHT22;18882;50.952;4.366;2023-06-10T12:45:39;30.80;96.30
32428;DHT22;18882;50.952;4.366;2023-06-10T12:48:18;30.90;95.90
32428;DHT22;18882;50.952;4.366;2023-06-10T12:50:50;31.10;95.10
32428;DHT22;18882;50.952;4.366;2023-06-10T12:53:35;31.40;94.80
32428;DHT22;18882;50.952;4.366;2023-06-10T12:56:14;31.60;95.30
32428;DHT22;18882;50.952;4.366;2023-06-10T12:58:40;31.80;94.30
32428;DHT22;18882;50.952;4.366;2023-06-10T13:01:06;31.40;93.30
32428;DHT22;18882;50.952;4.366;2023-06-10T13:03:31;31.20;94.60
32428;DHT22;18882;50.952;4.366;2023-06-10T13:05:57;31.20;95.50
32428;DHT22;18882;50.952;4.366;2023-06-10T13:08:23;31.40;94.00
32428;DHT22;18882;50.952;4.366;2023-06-10T13:10:48;31.50;93.10
32428;DHT22;18882;50.952;4.366;2023-06-10T13:13:14;31.50;92.90
32428;DHT22;18882;50.952;4.366;2023-06-10T13:15:41;31.40;93.20
32428;DHT22;18882;50.952;4.366;2023-06-10T13:18:07;31.70;93.40
32428;DHT22;18882;50.952;4.366;2023-06-10T13:20:33;31.70;92.50
32428;DHT22;18882;50.952;4.366;2023-06-10T13:22:58;31.30;92.40
32428;DHT22;18882;50.952;4.366;2023-06-10T13:25:24;31.30;92.20
32428;DHT22;18882;50.952;4.366;2023-06-10T13:27:50;31.30;92.30
32428;DHT22;18882;50.952;4.366;2023-06-10T13:30:16;30.90;92.20
32428;DHT22;18882;50.952;4.366;2023-06-10T13:32:41;30.70;92.50
32428;DHT22;18882;50.952;4.366;2023-06-10T13:35:07;30.60;93.40
32428;DHT22;18882;50.952;4.366;2023-06-10T13:37:33;30.70;93.00
32428;DHT22;18882;50.952;4.366;2023-06-10T13:40:00;30.80;93.50
32428;DHT22;18882;50.952;4.366;2023-06-10T13:42:25;30.70;92.50
32428;DHT22;18882;50.952;4.366;2023-06-10T13:44:52;30.60;92.60
32428;DHT22;18882;50.952;4.366;2023-06-10T13:47:17;30.50;93.60
32428;DHT22;18882;50.952;4.366;2023-06-10T13:49:49;30.90;93.70
32428;DHT22;18882;50.952;4.366;2023-06-10T13:52:15;31.10;92.30
32428;DHT22;18882;50.952;4.366;2023-06-10T13:54:41;30.80;92.70
32428;DHT22;18882;50.952;4.366;2023-06-10T13:57:06;30.80;93.70
32428;DHT22;18882;50.952;4.366;2023-06-10T13:59:32;30.80;93.20
32428;DHT22;18882;50.952;4.366;2023-06-10T14:01:58;30.90;92.80
32428;DHT22;18882;50.952;4.366;2023-06-10T14:04:24;30.80;92.80
32428;DHT22;18882;50.952;4.366;2023-06-10T14:06:49;30.80;93.10
32428;DHT22;18882;50.952;4.366;2023-06-10T14:09:15;30.90;93.10
32428;DHT22;18882;50.952;4.366;2023-06-10T14:11:41;30.90;92.60
32428;DHT22;18882;50.952;4.366;2023-06-10T14:14:07;30.80;92.20
32428;DHT22;18882;50.952;4.366;2023-06-10T14:16:33;30.80;91.40
32428;DHT22;18882;50.952;4.366;2023-06-10T14:18:58;30.60;92.40
32428;DHT22;18882;50.952;4.366;2023-06-10T14:21:24;30.40;92.50
32428;DHT22;18882;50.952;4.366;2023-06-10T14:23:52;30.70;93.40
32428;DHT22;18882;50.952;4.366;2023-06-10T14:26:24;31.10;93.70
32428;DHT22;18882;50.952;4.366;2023-06-10T14:28:51;31.40;92.90
32428;DHT22;18882;50.952;4.366;2023-06-10T14:31:17;31.50;92.60
32428;DHT22;18882;50.952;4.366;2023-06-10T14:33:43;31.60;92.20
32428;DHT22;18882;50.952;4.366;2023-06-10T14:36:09;31.70;92.30
32428;DHT22;18882;50.952;4.366;2023-06-10T14:38:38;31.50;90.80
32428;DHT22;18882;50.952;4.366;2023-06-10T14:41:04;31.50;91.70
32428;DHT22;18882;50.952;4.366;2023-06-10T14:43:29;31.60;91.40
32428;DHT22;18882;50.952;4.366;2023-06-10T14:45:55;31.50;90.40
32428;DHT22;18882;50.952;4.366;2023-06-10T14:48:22;31.10;91.10
32428;DHT22;18882;50.952;4.366;2023-06-10T14:50:47;30.80;91.60
32428;DHT22;18882;50.952;4.366;2023-06-10T14:53:19;30.90;92.40
32428;DHT22;18882;50.952;4.366;2023-06-10T14:55:45;31.00;92.40
32428;DHT22;18882;50.952;4.366;2023-06-10T14:58:23;31.10;90.90
32428;DHT22;18882;50.952;4.366;2023-06-10T15:00:49;31.10;90.20
32428;DHT22;18882;50.952;4.366;2023-06-10T15:03:14;31.00;90.40
32428;DHT22;18882;50.952;4.366;2023-06-10T15:05:40;30.90;91.50
32428;DHT22;18882;50.952;4.366;2023-06-10T15:08:24;30.80;91.50
32428;DHT22;18882;50.952;4.366;2023-06-10T15:10:50;30.70;91.40
32428;DHT22;18882;50.952;4.366;2023-06-10T15:13:15;30.80;92.80
32428;DHT22;18882;50.952;4.366;2023-06-10T15:15:41;31.00;92.20
32428;DHT22;18882;50.952;4.366;2023-06-10T15:18:06;31.10;92.30
32428;DHT22;18882;50.952;4.366;2023-06-10T15:20:32;31.00;92.10
32428;DHT22;18882;50.952;4.366;2023-06-10T15:22:58;31.20;92.00
32428;DHT22;18882;50.952;4.366;2023-06-10T15:25:23;31.30;92.20
32428;DHT22;18882;50.952;4.366;2023-06-10T15:27:49;31.00;91.30
32428;DHT22;18882;50.952;4.366;2023-06-10T15:30:15;30.80;91.50
32428;DHT22;18882;50.952;4.366;2023-06-10T15:32:41;30.90;91.70
32428;DHT22;18882;50.952;4.366;2023-06-10T15:35:42;31.10;92.20
32428;DHT22;18882;50.952;4.366;2023-06-10T15:38:10;31.20;91.60
32428;DHT22;18882;50.952;4.366;2023-06-10T15:40:36;31.30;91.60
32428;DHT22;18882;50.952;4.366;2023-06-10T15:43:02;31.50;91.20
32428;DHT22;18882;50.952;4.366;2023-06-10T15:45:28;31.30;89.90
32428;DHT22;18882;50.952;4.366;2023-06-10T15:47:54;31.20;91.00
32428;DHT22;18882;50.952;4.366;2023-06-10T15:50:20;31.20;90.90
32428;DHT22;18882;50.952;4.366;2023-06-10T15:52:45;31.20;90.90
32428;DHT22;18882;50.952;4.366;2023-06-10T15:55:11;31.20;91.40
32428;DHT22;18882;50.952;4.366;2023-06-10T15:57:37;31.40;91.10